sensor_id;sensor_type;location;lat;lon;timestamp;P1;durP1;ratioP1;P2;durP2;ratioP2
65358;SDS011;52491;45.900;6.346;2023-02-10T00:01:08;12.77;;;9.18;;
65358;SDS011;52491;45.900;6.346;2023-02-10T00:03:35;13.38;;;10.23;;
65358;SDS011;52491;45.900;6.346;2023-02-10T00:06:02;13.32;;;9.45;;
65358;SDS011;52491;45.900;6.346;2023-02-10T00:08:29;12.85;;;9.27;;
65358;SDS011;52491;45.900;6.346;2023-02-10T00:11:02;11.68;;;8.80;;
65358;SDS011;52491;45.900;6.346;2023-02-10T00:13:30;10.68;;;8.38;;
65358;SDS011;52491;45.900;6.346;2023-02-10T00:15:57;13.82;;;9.07;;
65358;SDS011;52491;45.900;6.346;2023-02-10T00:18:24;11.45;;;8.82;;
65358;SDS011;52491;45.900;6.346;2023-02-10T00:20:50;10.13;;;8.00;;
65358;SDS011;52491;45.900;6.346;2023-02-10T00:23:16;12.43;;;8.40;;
65358;SDS011;52491;45.900;6.346;2023-02-10T00:25:41;11.98;;;8.48;;
65358;SDS011;52491;45.900;6.346;2023-02-10T00:28:07;11.40;;;9.10;;
65358;SDS011;52491;45.900;6.346;2023-02-10T00:30:33;12.13;;;9.85;;
65358;SDS011;52491;45.900;6.346;2023-02-10T00:32:59;12.10;;;7.55;;
65358;SDS011;52491;45.900;6.346;2023-02-10T00:35:25;10.38;;;8.27;;
65358;SDS011;52491;45.900;6.346;2023-02-10T00:37:50;9.18;;;7.63;;
65358;SDS011;52491;45.900;6.346;2023-02-10T00:40:16;9.38;;;7.63;;
65358;SDS011;52491;45.900;6.346;2023-02-10T00:42:42;9.88;;;7.88;;
65358;SDS011;52491;45.900;6.346;2023-02-10T00:45:08;8.88;;;6.80;;
65358;SDS011;52491;45.900;6.346;2023-02-10T00:47:34;8.52;;;7.20;;
65358;SDS011;52491;45.900;6.346;2023-02-10T00:50:00;8.95;;;6.97;;
65358;SDS011;52491;45.900;6.346;2023-02-10T00:52:25;8.82;;;6.22;;
65358;SDS011;52491;45.900;6.346;2023-02-10T00:54:51;10.32;;;6.38;;
65358;SDS011;52491;45.900;6.346;2023-02-10T00:57:17;8.27;;;6.82;;
65358;SDS011;52491;45.900;6.346;2023-02-10T00:59:42;7.95;;;6.38;;
65358;SDS011;52491;45.900;6.346;2023-02-10T01:02:08;9.73;;;6.82;;
65358;SDS011;52491;45.900;6.346;2023-02-10T01:04:34;9.10;;;6.40;;
65358;SDS011;52491;45.900;6.346;2023-02-10T01:06:59;6.88;;;5.55;;
65358;SDS011;52491;45.900;6.346;2023-02-10T01:09:25;8.82;;;6.65;;
65358;SDS011;52491;45.900;6.346;2023-02-10T01:11:51;8.70;;;6.25;;
65358;SDS011;52491;45.900;6.346;2023-02-10T01:14:16;7.13;;;6.38;;
65358;SDS011;52491;45.900;6.346;2023-02-10T01:16:42;7.78;;;6.03;;
65358;SDS011;52491;45.900;6.346;2023-02-10T01:19:08;5.85;;;5.00;;
65358;SDS011;52491;45.900;6.346;2023-02-10T01:21:33;8.02;;;5.25;;
65358;SDS011;52491;45.900;6.346;2023-02-10T01:24:01;7.22;;;5.25;;
65358;SDS011;52491;45.900;6.346;2023-02-10T01:26:28;5.70;;;5.05;;
65358;SDS011;52491;45.900;6.346;2023-02-10T01:28:53;6.22;;;5.15;;
65358;SDS011;52491;45.900;6.346;2023-02-10T01:31:19;7.22;;;5.43;;
65358;SDS011;52491;45.900;6.346;2023-02-10T01:33:46;5.90;;;4.35;;
65358;SDS011;52491;45.900;6.346;2023-02-10T01:36:16;6.60;;;4.57;;
65358;SDS011;52491;45.900;6.346;2023-02-10T01:38:42;5.50;;;4.60;;
65358;SDS011;52491;45.900;6.346;2023-02-10T01:41:10;6.85;;;5.07;;
65358;SDS011;52491;45.900;6.346;2023-02-10T01:46:25;5.95;;;4.43;;
65358;SDS011;52491;45.900;6.346;2023-02-10T01:48:52;8.57;;;5.35;;
65358;SDS011;52491;45.900;6.346;2023-02-10T01:51:21;6.65;;;5.40;;
65358;SDS011;52491;45.900;6.346;2023-02-10T01:53:50;6.30;;;5.38;;
65358;SDS011;52491;45.900;6.346;2023-02-10T01:56:17;6.25;;;5.05;;
65358;SDS011;52491;45.900;6.346;2023-02-10T01:58:43;5.82;;;4.45;;
65358;SDS011;52491;45.900;6.346;2023-02-10T02:01:09;5.55;;;4.32;;
65358;SDS011;52491;45.900;6.346;2023-02-10T02:03:35;6.25;;;3.95;;
65358;SDS011;52491;45.900;6.346;2023-02-10T02:06:01;5.03;;;3.83;;
65358;SDS011;52491;45.900;6.346;2023-02-10T02:08:27;5.40;;;4.20;;
65358;SDS011;52491;45.900;6.346;2023-02-10T02:13:43;4.95;;;4.00;;
65358;SDS011;52491;45.900;6.346;2023-02-10T02:18:56;5.40;;;3.67;;
65358;SDS011;52491;45.900;6.346;2023-02-10T02:33:29;4.53;;;3.25;;
65358;SDS011;52491;45.900;6.346;2023-02-10T02:36:08;4.35;;;3.63;;
65358;SDS011;52491;45.900;6.346;2023-02-10T02:41:03;4.30;;;3.83;;
65358;SDS011;52491;45.900;6.346;2023-02-10T02:43:29;5.95;;;3.88;;
65358;SDS011;52491;45.900;6.346;2023-02-10T02:46:04;5.88;;;3.80;;
65358;SDS011;52491;45.900;6.346;2023-02-10T03:02:38;4.28;;;3.72;;
65358;SDS011;52491;45.900;6.346;2023-02-10T03:05:09;4.95;;;3.60;;
65358;SDS011;52491;45.900;6.346;2023-02-10T03:07:35;4.45;;;3.65;;
65358;SDS011;52491;45.900;6.346;2023-02-10T03:10:02;5.60;;;4.28;;
65358;SDS011;52491;45.900;6.346;2023-02-10T03:12:28;5.82;;;5.03;;
65358;SDS011;52491;45.900;6.346;2023-02-10T03:14:54;5.68;;;4.55;;
65358;SDS011;52491;45.900;6.346;2023-02-10T03:17:19;6.80;;;5.03;;
65358;SDS011;52491;45.900;6.346;2023-02-10T03:19:45;6.22;;;5.10;;
65358;SDS011;52491;45.900;6.346;2023-02-10T03:22:11;7.55;;;5.00;;
65358;SDS011;52491;45.900;6.346;2023-02-10T03:24:37;7.05;;;4.68;;
65358;SDS011;52491;45.900;6.346;2023-02-10T03:27:03;7.97;;;5.22;;
65358;SDS011;52491;45.900;6.346;2023-02-10T03:29:30;5.97;;;5.03;;
65358;SDS011;52491;45.900;6.346;2023-02-10T03:31:56;7.45;;;5.53;;
65358;SDS011;52491;45.900;6.346;2023-02-10T03:34:22;6.30;;;4.38;;
65358;SDS011;52491;45.900;6.346;2023-02-10T03:36:48;8.15;;;5.82;;
65358;SDS011;52491;45.900;6.346;2023-02-10T03:39:14;6.53;;;4.65;;
65358;SDS011;52491;45.900;6.346;2023-02-10T03:41:39;6.40;;;5.05;;
65358;SDS011;52491;45.900;6.346;2023-02-10T03:44:05;6.43;;;4.90;;
65358;SDS011;52491;45.900;6.346;2023-02-10T03:46:31;7.65;;;5.30;;
65358;SDS011;52491;45.900;6.346;2023-02-10T03:48:56;6.18;;;5.03;;
65358;SDS011;52491;45.900;6.346;2023-02-10T03:51:22;5.40;;;4.47;;
65358;SDS011;52491;45.900;6.346;2023-02-10T03:53:48;7.32;;;4.63;;
65358;SDS011;52491;45.900;6.346;2023-02-10T03:56:13;7.57;;;5.22;;
65358;SDS011;52491;45.900;6.346;2023-02-10T03:58:39;5.85;;;4.18;;
65358;SDS011;52491;45.900;6.346;2023-02-10T04:01:12;6.43;;;5.15;;
65358;SDS011;52491;45.900;6.346;2023-02-10T04:03:40;6.40;;;4.57;;
65358;SDS011;52491;45.900;6.346;2023-02-10T04:06:06;6.68;;;5.30;;
65358;SDS011;52491;45.900;6.346;2023-02-10T04:08:32;7.70;;;5.38;;
65358;SDS011;52491;45.900;6.346;2023-02-10T04:10:58;4.82;;;4.13;;
65358;SDS011;52491;45.900;6.346;2023-02-10T04:13:23;4.35;;;3.78;;
65358;SDS011;52491;45.900;6.346;2023-02-10T04:15:58;6.25;;;4.50;;
65358;SDS011;52491;45.900;6.346;2023-02-10T04:18:27;5.80;;;4.15;;
65358;SDS011;52491;45.900;6.346;2023-02-10T04:20:52;5.65;;;3.83;;
65358;SDS011;52491;45.900;6.346;2023-02-10T04:23:18;3.72;;;3.38;;
65358;SDS011;52491;45.900;6.346;2023-02-10T04:25:43;4.15;;;3.67;;
65358;SDS011;52491;45.900;6.346;2023-02-10T04:28:09;4.30;;;3.63;;
65358;SDS011;52491;45.900;6.346;2023-02-10T04:30:35;4.68;;;3.30;;
65358;SDS011;52491;45.900;6.346;2023-02-10T04:33:01;3.63;;;3.08;;
65358;SDS011;52491;45.900;6.346;2023-02-10T04:35:26;4.88;;;3.72;;
65358;SDS011;52491;45.900;6.346;2023-02-10T04:37:52;4.13;;;3.35;;
65358;SDS011;52491;45.900;6.346;2023-02-10T04:40:17;4.25;;;3.22;;
65358;SDS011;52491;45.900;6.346;2023-02-10T04:42:43;4.70;;;3.25;;
65358;SDS011;52491;45.900;6.346;2023-02-10T04:45:09;3.10;;;2.50;;
65358;SDS011;52491;45.900;6.346;2023-02-10T04:47:34;5.03;;;3.35;;
65358;SDS011;52491;45.900;6.346;2023-02-10T04:50:00;3.20;;;2.90;;
65358;SDS011;52491;45.900;6.346;2023-02-10T04:52:26;4.40;;;3.35;;
65358;SDS011;52491;45.900;6.346;2023-02-10T04:54:51;3.78;;;3.03;;
65358;SDS011;52491;45.900;6.346;2023-02-10T04:57:17;3.63;;;3.05;;
65358;SDS011;52491;45.900;6.346;2023-02-10T04:59:43;3.03;;;2.67;;
65358;SDS011;52491;45.900;6.346;2023-02-10T05:02:08;4.10;;;3.08;;
65358;SDS011;52491;45.900;6.346;2023-02-10T05:04:34;3.63;;;3.15;;
65358;SDS011;52491;45.900;6.346;2023-02-10T05:06:59;4.25;;;3.00;;
65358;SDS011;52491;45.900;6.346;2023-02-10T05:09:25;5.15;;;3.17;;
65358;SDS011;52491;45.900;6.346;2023-02-10T05:11:52;2.55;;;2.35;;
65358;SDS011;52491;45.900;6.346;2023-02-10T05:14:18;5.75;;;2.90;;
65358;SDS011;52491;45.900;6.346;2023-02-10T05:16:44;4.10;;;3.38;;
65358;SDS011;52491;45.900;6.346;2023-02-10T05:19:09;4.93;;;3.63;;
65358;SDS011;52491;45.900;6.346;2023-02-10T05:21:35;4.97;;;3.42;;
65358;SDS011;52491;45.900;6.346;2023-02-10T05:24:01;4.65;;;3.45;;
65358;SDS011;52491;45.900;6.346;2023-02-10T05:26:28;3.65;;;3.03;;
65358;SDS011;52491;45.900;6.346;2023-02-10T05:28:53;2.95;;;2.65;;
65358;SDS011;52491;45.900;6.346;2023-02-10T05:31:19;6.03;;;2.72;;
65358;SDS011;52491;45.900;6.346;2023-02-10T05:33:45;3.20;;;2.78;;
65358;SDS011;52491;45.900;6.346;2023-02-10T05:36:10;3.45;;;2.25;;
65358;SDS011;52491;45.900;6.346;2023-02-10T05:38:37;3.78;;;2.95;;
65358;SDS011;52491;45.900;6.346;2023-02-10T05:41:02;4.70;;;2.58;;
65358;SDS011;52491;45.900;6.346;2023-02-10T05:43:29;3.88;;;2.60;;
65358;SDS011;52491;45.900;6.346;2023-02-10T05:45:54;4.10;;;2.58;;
65358;SDS011;52491;45.900;6.346;2023-02-10T05:48:21;2.78;;;2.58;;
65358;SDS011;52491;45.900;6.346;2023-02-10T05:50:50;3.53;;;2.95;;
65358;SDS011;52491;45.900;6.346;2023-02-10T05:53:16;2.97;;;2.35;;
65358;SDS011;52491;45.900;6.346;2023-02-10T05:55:42;2.88;;;2.63;;
65358;SDS011;52491;45.900;6.346;2023-02-10T05:58:10;7.90;;;2.88;;
65358;SDS011;52491;45.900;6.346;2023-02-10T06:00:35;3.20;;;2.50;;
65358;SDS011;52491;45.900;6.346;2023-02-10T06:03:01;2.95;;;2.58;;
65358;SDS011;52491;45.900;6.346;2023-02-10T06:05:27;3.53;;;2.80;;
65358;SDS011;52491;45.900;6.346;2023-02-10T06:07:52;4.82;;;2.20;;
65358;SDS011;52491;45.900;6.346;2023-02-10T06:10:19;3.50;;;2.63;;
65358;SDS011;52491;45.900;6.346;2023-02-10T06:12:45;3.88;;;2.47;;
65358;SDS011;52491;45.900;6.346;2023-02-10T06:15:11;2.95;;;2.13;;
65358;SDS011;52491;45.900;6.346;2023-02-10T06:17:37;2.35;;;1.85;;
65358;SDS011;52491;45.900;6.346;2023-02-10T06:20:03;3.13;;;2.50;;
65358;SDS011;52491;45.900;6.346;2023-02-10T06:22:29;2.53;;;2.15;;
65358;SDS011;52491;45.900;6.346;2023-02-10T06:24:55;2.22;;;1.90;;
65358;SDS011;52491;45.900;6.346;2023-02-10T06:27:20;3.85;;;2.88;;
65358;SDS011;52491;45.900;6.346;2023-02-10T06:29:46;2.65;;;2.15;;
65358;SDS011;52491;45.900;6.346;2023-02-10T06:32:13;2.83;;;2.15;;
65358;SDS011;52491;45.900;6.346;2023-02-10T06:34:38;5.55;;;2.25;;
65358;SDS011;52491;45.900;6.346;2023-02-10T06:37:06;2.22;;;1.95;;
65358;SDS011;52491;45.900;6.346;2023-02-10T06:39:34;3.17;;;2.40;;
65358;SDS011;52491;45.900;6.346;2023-02-10T06:42:01;3.25;;;1.95;;
65358;SDS011;52491;45.900;6.346;2023-02-10T06:44:27;3.60;;;2.17;;
65358;SDS011;52491;45.900;6.346;2023-02-10T06:46:52;5.88;;;2.30;;
65358;SDS011;52491;45.900;6.346;2023-02-10T06:49:18;7.10;;;2.88;;
65358;SDS011;52491;45.900;6.346;2023-02-10T06:51:44;3.22;;;2.17;;
65358;SDS011;52491;45.900;6.346;2023-02-10T06:54:09;3.65;;;2.65;;
65358;SDS011;52491;45.900;6.346;2023-02-10T06:56:35;6.07;;;2.70;;
65358;SDS011;52491;45.900;6.346;2023-02-10T06:59:00;2.80;;;2.22;;
65358;SDS011;52491;45.900;6.346;2023-02-10T07:01:26;10.02;;;2.92;;
65358;SDS011;52491;45.900;6.346;2023-02-10T07:03:52;2.83;;;2.55;;
65358;SDS011;52491;45.900;6.346;2023-02-10T07:06:17;2.88;;;2.35;;
65358;SDS011;52491;45.900;6.346;2023-02-10T07:08:43;3.55;;;3.22;;
65358;SDS011;52491;45.900;6.346;2023-02-10T07:11:09;3.08;;;2.70;;
65358;SDS011;52491;45.900;6.346;2023-02-10T07:13:35;3.40;;;2.72;;
65358;SDS011;52491;45.900;6.346;2023-02-10T07:16:01;6.18;;;2.58;;
65358;SDS011;52491;45.900;6.346;2023-02-10T07:18:26;4.68;;;2.88;;
65358;SDS011;52491;45.900;6.346;2023-02-10T07:20:55;3.47;;;2.53;;
65358;SDS011;52491;45.900;6.346;2023-02-10T07:23:20;3.47;;;2.88;;
65358;SDS011;52491;45.900;6.346;2023-02-10T07:25:46;3.65;;;2.78;;
65358;SDS011;52491;45.900;6.346;2023-02-10T07:28:12;6.40;;;2.83;;
65358;SDS011;52491;45.900;6.346;2023-02-10T07:30:37;3.63;;;3.25;;
65358;SDS011;52491;45.900;6.346;2023-02-10T07:33:03;3.85;;;3.00;;
65358;SDS011;52491;45.900;6.346;2023-02-10T07:35:29;6.90;;;3.00;;
65358;SDS011;52491;45.900;6.346;2023-02-10T07:37:54;5.63;;;4.03;;
65358;SDS011;52491;45.900;6.346;2023-02-10T07:40:20;4.30;;;3.67;;
65358;SDS011;52491;45.900;6.346;2023-02-10T07:42:46;5.18;;;4.35;;
65358;SDS011;52491;45.900;6.346;2023-02-10T07:45:12;4.85;;;4.30;;
65358;SDS011;52491;45.900;6.346;2023-02-10T07:47:37;5.13;;;4.07;;
65358;SDS011;52491;45.900;6.346;2023-02-10T07:50:03;7.57;;;3.95;;
65358;SDS011;52491;45.900;6.346;2023-02-10T07:52:29;4.57;;;4.15;;
65358;SDS011;52491;45.900;6.346;2023-02-10T07:54:55;6.93;;;5.18;;
65358;SDS011;52491;45.900;6.346;2023-02-10T07:57:21;6.00;;;4.28;;
65358;SDS011;52491;45.900;6.346;2023-02-10T07:59:47;10.35;;;7.65;;
65358;SDS011;52491;45.900;6.346;2023-02-10T08:02:12;8.80;;;6.15;;
65358;SDS011;52491;45.900;6.346;2023-02-10T08:04:38;9.05;;;7.53;;
65358;SDS011;52491;45.900;6.346;2023-02-10T08:35:07;7.82;;;7.00;;
65358;SDS011;52491;45.900;6.346;2023-02-10T08:37:32;11.40;;;7.05;;
65358;SDS011;52491;45.900;6.346;2023-02-10T08:39:59;7.68;;;6.68;;
65358;SDS011;52491;45.900;6.346;2023-02-10T08:42:25;9.00;;;7.05;;
65358;SDS011;52491;45.900;6.346;2023-02-10T08:44:51;8.27;;;7.07;;
65358;SDS011;52491;45.900;6.346;2023-02-10T08:47:17;7.55;;;6.72;;
65358;SDS011;52491;45.900;6.346;2023-02-10T08:49:42;10.77;;;7.55;;
65358;SDS011;52491;45.900;6.346;2023-02-10T08:52:09;10.68;;;7.32;;
65358;SDS011;52491;45.900;6.346;2023-02-10T08:54:35;11.65;;;7.45;;
65358;SDS011;52491;45.900;6.346;2023-02-10T08:57:01;10.50;;;7.10;;
65358;SDS011;52491;45.900;6.346;2023-02-10T08:59:26;13.43;;;6.90;;
65358;SDS011;52491;45.900;6.346;2023-02-10T09:01:52;8.52;;;6.97;;
65358;SDS011;52491;45.900;6.346;2023-02-10T09:04:18;8.85;;;7.55;;
65358;SDS011;52491;45.900;6.346;2023-02-10T09:06:45;11.23;;;9.30;;
65358;SDS011;52491;45.900;6.346;2023-02-10T09:09:15;11.63;;;7.90;;
65358;SDS011;52491;45.900;6.346;2023-02-10T09:11:44;8.80;;;7.32;;
65358;SDS011;52491;45.900;6.346;2023-02-10T09:14:11;8.48;;;7.55;;
65358;SDS011;52491;45.900;6.346;2023-02-10T09:16:37;9.63;;;7.18;;
65358;SDS011;52491;45.900;6.346;2023-02-10T09:19:03;9.75;;;7.15;;
65358;SDS011;52491;45.900;6.346;2023-02-10T09:21:29;11.80;;;8.50;;
65358;SDS011;52491;45.900;6.346;2023-02-10T09:23:55;12.95;;;9.52;;
65358;SDS011;52491;45.900;6.346;2023-02-10T09:26:22;13.70;;;9.75;;
65358;SDS011;52491;45.900;6.346;2023-02-10T09:28:48;14.93;;;9.95;;
65358;SDS011;52491;45.900;6.346;2023-02-10T09:31:14;15.30;;;11.25;;
65358;SDS011;52491;45.900;6.346;2023-02-10T09:33:43;21.52;;;11.80;;
65358;SDS011;52491;45.900;6.346;2023-02-10T09:36:16;22.15;;;12.05;;
65358;SDS011;52491;45.900;6.346;2023-02-10T09:38:43;15.07;;;10.35;;
65358;SDS011;52491;45.900;6.346;2023-02-10T09:50:03;14.20;;;8.52;;
65358;SDS011;52491;45.900;6.346;2023-02-10T09:55:14;12.30;;;8.32;;
65358;SDS011;52491;45.900;6.346;2023-02-10T09:57:43;15.88;;;9.55;;
65358;SDS011;52491;45.900;6.346;2023-02-10T10:00:35;10.63;;;8.68;;
65358;SDS011;52491;45.900;6.346;2023-02-10T10:03:05;8.23;;;7.07;;
65358;SDS011;52491;45.900;6.346;2023-02-10T10:13:50;14.10;;;8.95;;
65358;SDS011;52491;45.900;6.346;2023-02-10T10:24:41;10.30;;;6.93;;
65358;SDS011;52491;45.900;6.346;2023-02-10T10:30:07;10.30;;;6.28;;
65358;SDS011;52491;45.900;6.346;2023-02-10T10:32:43;16.65;;;5.88;;
65358;SDS011;52491;45.900;6.346;2023-02-10T10:35:16;8.45;;;6.28;;
65358;SDS011;52491;45.900;6.346;2023-02-10T10:37:45;12.98;;;6.75;;
65358;SDS011;52491;45.900;6.346;2023-02-10T10:40:32;10.77;;;6.10;;
65358;SDS011;52491;45.900;6.346;2023-02-10T10:42:58;11.13;;;5.43;;
65358;SDS011;52491;45.900;6.346;2023-02-10T10:45:32;8.40;;;4.95;;
65358;SDS011;52491;45.900;6.346;2023-02-10T10:48:08;13.20;;;5.95;;
65358;SDS011;52491;45.900;6.346;2023-02-10T10:50:38;11.07;;;9.07;;
65358;SDS011;52491;45.900;6.346;2023-02-10T10:53:11;12.07;;;8.40;;
65358;SDS011;52491;45.900;6.346;2023-02-10T10:55:49;14.13;;;8.52;;
65358;SDS011;52491;45.900;6.346;2023-02-10T10:58:35;7.07;;;5.78;;
65358;SDS011;52491;45.900;6.346;2023-02-10T11:01:03;12.52;;;7.78;;
65358;SDS011;52491;45.900;6.346;2023-02-10T11:03:30;10.77;;;5.88;;
65358;SDS011;52491;45.900;6.346;2023-02-10T11:06:03;11.07;;;6.15;;
65358;SDS011;52491;45.900;6.346;2023-02-10T11:08:40;10.30;;;6.30;;
65358;SDS011;52491;45.900;6.346;2023-02-10T11:11:09;9.25;;;6.38;;
65358;SDS011;52491;45.900;6.346;2023-02-10T11:13:41;14.25;;;6.05;;
65358;SDS011;52491;45.900;6.346;2023-02-10T11:16:18;12.80;;;7.25;;
65358;SDS011;52491;45.900;6.346;2023-02-10T11:18:52;10.38;;;7.00;;
65358;SDS011;52491;45.900;6.346;2023-02-10T11:21:19;7.82;;;5.38;;
65358;SDS011;52491;45.900;6.346;2023-02-10T11:23:49;9.85;;;6.13;;
65358;SDS011;52491;45.900;6.346;2023-02-10T11:26:21;9.77;;;6.47;;
65358;SDS011;52491;45.900;6.346;2023-02-10T11:28:48;6.75;;;5.63;;
65358;SDS011;52491;45.900;6.346;2023-02-10T11:33:56;6.80;;;6.00;;
65358;SDS011;52491;45.900;6.346;2023-02-10T11:36:28;8.57;;;6.60;;
65358;SDS011;52491;45.900;6.346;2023-02-10T11:39:02;6.90;;;5.38;;
65358;SDS011;52491;45.900;6.346;2023-02-10T11:41:31;8.48;;;5.25;;
65358;SDS011;52491;45.900;6.346;2023-02-10T11:43:59;7.22;;;5.55;;
65358;SDS011;52491;45.900;6.346;2023-02-10T11:46:27;6.53;;;4.15;;
65358;SDS011;52491;45.900;6.346;2023-02-10T11:48:57;10.60;;;5.45;;
65358;SDS011;52491;45.900;6.346;2023-02-10T11:51:24;5.90;;;4.25;;
65358;SDS011;52491;45.900;6.346;2023-02-10T11:53:50;5.82;;;4.70;;
65358;SDS011;52491;45.900;6.346;2023-02-10T12:07:57;8.88;;;4.47;;
65358;SDS011;52491;45.900;6.346;2023-02-10T12:10:50;9.15;;;4.85;;
65358;SDS011;52491;45.900;6.346;2023-02-10T12:21:21;13.95;;;6.00;;
65358;SDS011;52491;45.900;6.346;2023-02-10T12:27:07;14.80;;;5.93;;
65358;SDS011;52491;45.900;6.346;2023-02-10T12:29:56;10.70;;;5.00;;
65358;SDS011;52491;45.900;6.346;2023-02-10T12:32:59;7.18;;;4.60;;
65358;SDS011;52491;45.900;6.346;2023-02-10T12:44:10;10.57;;;4.70;;
65358;SDS011;52491;45.900;6.346;2023-02-10T12:46:55;7.38;;;4.00;;
65358;SDS011;52491;45.900;6.346;2023-02-10T12:52:21;16.80;;;5.70;;
65358;SDS011;52491;45.900;6.346;2023-02-10T12:54:57;9.35;;;4.60;;
65358;SDS011;52491;45.900;6.346;2023-02-10T13:00:27;6.88;;;3.78;;
65358;SDS011;52491;45.900;6.346;2023-02-10T13:03:09;8.93;;;4.15;;
65358;SDS011;52491;45.900;6.346;2023-02-10T13:05:42;10.02;;;4.43;;
65358;SDS011;52491;45.900;6.346;2023-02-10T13:08:13;6.25;;;3.72;;
65358;SDS011;52491;45.900;6.346;2023-02-10T13:10:50;4.00;;;3.42;;
65358;SDS011;52491;45.900;6.346;2023-02-10T13:18:32;8.35;;;3.88;;
65358;SDS011;52491;45.900;6.346;2023-02-10T13:27:30;4.25;;;3.33;;
65358;SDS011;52491;45.900;6.346;2023-02-10T13:29:59;7.10;;;3.60;;
65358;SDS011;52491;45.900;6.346;2023-02-10T13:35:28;5.38;;;3.63;;
65358;SDS011;52491;45.900;6.346;2023-02-10T13:37:57;5.15;;;2.97;;
65358;SDS011;52491;45.900;6.346;2023-02-10T13:40:26;4.93;;;3.15;;
65358;SDS011;52491;45.900;6.346;2023-02-10T13:42:59;10.27;;;3.60;;
65358;SDS011;52491;45.900;6.346;2023-02-10T13:45:33;4.28;;;2.63;;
65358;SDS011;52491;45.900;6.346;2023-02-10T13:48:02;6.85;;;3.20;;
65358;SDS011;52491;45.900;6.346;2023-02-10T13:50:31;5.38;;;3.13;;
65358;SDS011;52491;45.900;6.346;2023-02-10T13:53:27;3.53;;;2.83;;
65358;SDS011;52491;45.900;6.346;2023-02-10T13:56:03;5.68;;;3.05;;
65358;SDS011;52491;45.900;6.346;2023-02-10T13:58:54;4.53;;;2.80;;
65358;SDS011;52491;45.900;6.346;2023-02-10T14:01:30;5.07;;;2.35;;
65358;SDS011;52491;45.900;6.346;2023-02-10T14:03:57;4.70;;;2.67;;
65358;SDS011;52491;45.900;6.346;2023-02-10T14:06:38;4.35;;;2.92;;
65358;SDS011;52491;45.900;6.346;2023-02-10T14:09:19;4.20;;;2.53;;
65358;SDS011;52491;45.900;6.346;2023-02-10T14:11:54;3.40;;;2.78;;
65358;SDS011;52491;45.900;6.346;2023-02-10T14:14:27;5.32;;;2.97;;
65358;SDS011;52491;45.900;6.346;2023-02-10T14:17:15;5.25;;;3.10;;
65358;SDS011;52491;45.900;6.346;2023-02-10T14:19:46;5.30;;;3.03;;
65358;SDS011;52491;45.900;6.346;2023-02-10T14:24:55;3.55;;;2.53;;
65358;SDS011;52491;45.900;6.346;2023-02-10T14:27:25;2.70;;;2.33;;
65358;SDS011;52491;45.900;6.346;2023-02-10T14:29:55;5.20;;;2.50;;
65358;SDS011;52491;45.900;6.346;2023-02-10T14:32:23;5.00;;;3.08;;
65358;SDS011;52491;45.900;6.346;2023-02-10T14:35:31;3.60;;;2.30;;
65358;SDS011;52491;45.900;6.346;2023-02-10T14:37:50;6.03;;;2.63;;
65358;SDS011;52491;45.900;6.346;2023-02-10T14:40:19;3.72;;;2.28;;
65358;SDS011;52491;45.900;6.346;2023-02-10T14:42:47;8.57;;;5.35;;
65358;SDS011;52491;45.900;6.346;2023-02-10T14:45:22;3.72;;;2.67;;
65358;SDS011;52491;45.900;6.346;2023-02-10T14:47:52;3.13;;;2.83;;
65358;SDS011;52491;45.900;6.346;2023-02-10T14:50:26;2.90;;;2.45;;
65358;SDS011;52491;45.900;6.346;2023-02-10T14:52:54;3.70;;;2.78;;
65358;SDS011;52491;45.900;6.346;2023-02-10T14:55:23;3.33;;;2.33;;
65358;SDS011;52491;45.900;6.346;2023-02-10T14:58:06;4.80;;;2.80;;
65358;SDS011;52491;45.900;6.346;2023-02-10T15:00:36;6.18;;;2.72;;
65358;SDS011;52491;45.900;6.346;2023-02-10T15:03:04;2.45;;;2.25;;
65358;SDS011;52491;45.900;6.346;2023-02-10T15:05:31;5.90;;;3.03;;
65358;SDS011;52491;45.900;6.346;2023-02-10T15:08:02;2.30;;;1.95;;
65358;SDS011;52491;45.900;6.346;2023-02-10T15:10:34;7.35;;;2.55;;
65358;SDS011;52491;45.900;6.346;2023-02-10T15:13:06;2.53;;;2.33;;
65358;SDS011;52491;45.900;6.346;2023-02-10T15:15:35;9.50;;;2.72;;
65358;SDS011;52491;45.900;6.346;2023-02-10T15:18:05;5.15;;;2.00;;
65358;SDS011;52491;45.900;6.346;2023-02-10T15:20:38;5.40;;;2.50;;
65358;SDS011;52491;45.900;6.346;2023-02-10T15:25:38;3.58;;;2.25;;
65358;SDS011;52491;45.900;6.346;2023-02-10T15:30:43;7.97;;;2.15;;
65358;SDS011;52491;45.900;6.346;2023-02-10T15:33:34;3.97;;;2.67;;
65358;SDS011;52491;45.900;6.346;2023-02-10T15:38:44;7.88;;;1.90;;
65358;SDS011;52491;45.900;6.346;2023-02-10T15:41:43;2.85;;;2.25;;
65358;SDS011;52491;45.900;6.346;2023-02-10T15:44:29;4.32;;;1.85;;
65358;SDS011;52491;45.900;6.346;2023-02-10T15:49:42;7.55;;;3.92;;
65358;SDS011;52491;45.900;6.346;2023-02-10T15:52:10;3.72;;;3.33;;
65358;SDS011;52491;45.900;6.346;2023-02-10T15:54:44;3.92;;;3.42;;
65358;SDS011;52491;45.900;6.346;2023-02-10T15:57:11;4.10;;;3.47;;
65358;SDS011;52491;45.900;6.346;2023-02-10T15:59:37;3.67;;;2.80;;
65358;SDS011;52491;45.900;6.346;2023-02-10T16:02:04;4.75;;;3.15;;
65358;SDS011;52491;45.900;6.346;2023-02-10T16:04:33;6.65;;;2.20;;
65358;SDS011;52491;45.900;6.346;2023-02-10T16:06:59;3.92;;;1.98;;
65358;SDS011;52491;45.900;6.346;2023-02-10T16:09:26;2.55;;;2.17;;
65358;SDS011;52491;45.900;6.346;2023-02-10T16:11:53;3.28;;;2.20;;
65358;SDS011;52491;45.900;6.346;2023-02-10T16:14:19;2.95;;;2.05;;
65358;SDS011;52491;45.900;6.346;2023-02-10T16:16:45;2.97;;;2.55;;
65358;SDS011;52491;45.900;6.346;2023-02-10T16:19:17;3.13;;;2.05;;
65358;SDS011;52491;45.900;6.346;2023-02-10T16:21:44;4.18;;;3.00;;
65358;SDS011;52491;45.900;6.346;2023-02-10T16:24:17;4.63;;;2.38;;
65358;SDS011;52491;45.900;6.346;2023-02-10T16:26:44;3.13;;;2.55;;
65358;SDS011;52491;45.900;6.346;2023-02-10T16:29:16;3.40;;;2.95;;
65358;SDS011;52491;45.900;6.346;2023-02-10T16:31:45;5.45;;;2.70;;
65358;SDS011;52491;45.900;6.346;2023-02-10T16:34:12;17.50;;;2.30;;
65358;SDS011;52491;45.900;6.346;2023-02-10T16:36:40;4.10;;;2.67;;
65358;SDS011;52491;45.900;6.346;2023-02-10T16:39:15;6.53;;;3.92;;
65358;SDS011;52491;45.900;6.346;2023-02-10T16:41:50;5.75;;;3.85;;
65358;SDS011;52491;45.900;6.346;2023-02-10T16:44:18;5.32;;;2.47;;
65358;SDS011;52491;45.900;6.346;2023-02-10T16:46:46;3.45;;;2.80;;
65358;SDS011;52491;45.900;6.346;2023-02-10T16:49:14;6.78;;;3.75;;
65358;SDS011;52491;45.900;6.346;2023-02-10T16:51:42;4.43;;;2.85;;
65358;SDS011;52491;45.900;6.346;2023-02-10T16:54:09;2.60;;;2.40;;
65358;SDS011;52491;45.900;6.346;2023-02-10T16:56:36;4.35;;;3.00;;
65358;SDS011;52491;45.900;6.346;2023-02-10T16:59:03;6.90;;;3.58;;
65358;SDS011;52491;45.900;6.346;2023-02-10T17:01:30;14.35;;;5.30;;
65358;SDS011;52491;45.900;6.346;2023-02-10T17:03:58;4.13;;;2.45;;
65358;SDS011;52491;45.900;6.346;2023-02-10T17:06:29;5.68;;;2.85;;
65358;SDS011;52491;45.900;6.346;2023-02-10T17:08:56;6.30;;;2.80;;
65358;SDS011;52491;45.900;6.346;2023-02-10T17:11:23;13.70;;;3.63;;
65358;SDS011;52491;45.900;6.346;2023-02-10T17:13:50;8.43;;;3.38;;
65358;SDS011;52491;45.900;6.346;2023-02-10T17:16:30;3.80;;;3.33;;
65358;SDS011;52491;45.900;6.346;2023-02-10T17:19:03;4.63;;;3.42;;
65358;SDS011;52491;45.900;6.346;2023-02-10T17:21:30;7.53;;;4.00;;
65358;SDS011;52491;45.900;6.346;2023-02-10T17:23:57;4.65;;;3.50;;
65358;SDS011;52491;45.900;6.346;2023-02-10T17:26:25;6.53;;;4.03;;
65358;SDS011;52491;45.900;6.346;2023-02-10T17:28:51;4.93;;;3.58;;
65358;SDS011;52491;45.900;6.346;2023-02-10T17:31:18;4.43;;;3.42;;
65358;SDS011;52491;45.900;6.346;2023-02-10T17:33:46;6.20;;;3.40;;
65358;SDS011;52491;45.900;6.346;2023-02-10T17:36:20;4.35;;;3.90;;
65358;SDS011;52491;45.900;6.346;2023-02-10T17:38:49;5.57;;;3.35;;